Sao Joao Evangelista, Brazil
Current Conditions -  °F | °C
As of 6:15 AM on Wednesday 22 Oct 2014 (Local Time) from SBIP Reporting Station
Overcast Overcast  
Wind Chill: 72°   Ceiling: 3000
Heat Index: 72°   Visibility: 6mi
Dew Point: 66°   Wind: 2mph
Humidity: 83%   Direction: 270°W
Pressure: 30.06"   Gusts: NA
Location:  18.55°S, 42.76°W
Report Text: SBIP 220815Z 27002KT 9999 BKN030 OVC090 22/19 Q1018
Loading
Personal Weather Stations






























Interactive Weather Map
Tropical Storm Tracking
New forecast layout! Learn more

10-Day Weather Forecast

Advertisements
Track Severe Weather on mobile